sensor_id;sensor_type;location;lat;lon;timestamp;P1;durP1;ratioP1;P2;durP2;ratioP2
3601;SDS011;1815;50.950;6.920;2023-04-24T00:01:47;1.20;;;0.50;;
3601;SDS011;1815;50.950;6.920;2023-04-24T00:04:13;1.30;;;0.50;;
3601;SDS011;1815;50.950;6.920;2023-04-24T00:06:41;1.30;;;0.50;;
3601;SDS011;1815;50.950;6.920;2023-04-24T00:09:08;1.60;;;0.60;;
3601;SDS011;1815;50.950;6.920;2023-04-24T00:11:35;1.30;;;0.50;;
3601;SDS011;1815;50.950;6.920;2023-04-24T00:14:01;1.20;;;0.50;;
3601;SDS011;1815;50.950;6.920;2023-04-24T00:16:26;1.50;;;0.60;;
3601;SDS011;1815;50.950;6.920;2023-04-24T00:18:53;3.65;;;0.68;;
3601;SDS011;1815;50.950;6.920;2023-04-24T00:21:18;1.83;;;0.50;;
3601;SDS011;1815;50.950;6.920;2023-04-24T00:23:44;2.10;;;0.60;;
3601;SDS011;1815;50.950;6.920;2023-04-24T00:26:10;1.40;;;0.60;;
3601;SDS011;1815;50.950;6.920;2023-04-24T00:28:35;1.43;;;0.60;;
3601;SDS011;1815;50.950;6.920;2023-04-24T00:31:02;1.67;;;0.60;;
3601;SDS011;1815;50.950;6.920;2023-04-24T00:33:28;2.70;;;0.60;;
3601;SDS011;1815;50.950;6.920;2023-04-24T00:35:54;1.80;;;0.73;;
3601;SDS011;1815;50.950;6.920;2023-04-24T00:38:20;1.37;;;0.70;;
3601;SDS011;1815;50.950;6.920;2023-04-24T00:40:47;1.60;;;0.70;;
3601;SDS011;1815;50.950;6.920;2023-04-24T00:43:15;1.40;;;0.60;;
3601;SDS011;1815;50.950;6.920;2023-04-24T00:45:41;1.30;;;0.60;;
3601;SDS011;1815;50.950;6.920;2023-04-24T00:48:07;1.33;;;0.67;;
3601;SDS011;1815;50.950;6.920;2023-04-24T00:50:35;1.30;;;0.60;;
3601;SDS011;1815;50.950;6.920;2023-04-24T00:53:01;1.30;;;0.70;;
3601;SDS011;1815;50.950;6.920;2023-04-24T00:55:27;1.20;;;0.50;;
3601;SDS011;1815;50.950;6.920;2023-04-24T00:57:56;2.40;;;0.70;;
3601;SDS011;1815;50.950;6.920;2023-04-24T01:00:22;1.40;;;0.70;;
3601;SDS011;1815;50.950;6.920;2023-04-24T01:02:48;1.73;;;0.70;;
3601;SDS011;1815;50.950;6.920;2023-04-24T01:05:33;1.43;;;0.60;;
3601;SDS011;1815;50.950;6.920;2023-04-24T01:07:59;2.03;;;0.60;;
3601;SDS011;1815;50.950;6.920;2023-04-24T01:10:26;2.03;;;0.60;;
3601;SDS011;1815;50.950;6.920;2023-04-24T01:12:54;1.47;;;0.73;;
3601;SDS011;1815;50.950;6.920;2023-04-24T01:15:20;1.37;;;0.70;;
3601;SDS011;1815;50.950;6.920;2023-04-24T01:17:46;2.40;;;0.73;;
3601;SDS011;1815;50.950;6.920;2023-04-24T01:20:13;2.20;;;0.70;;
3601;SDS011;1815;50.950;6.920;2023-04-24T01:22:40;1.20;;;0.60;;
3601;SDS011;1815;50.950;6.920;2023-04-24T01:25:06;1.70;;;0.80;;
3601;SDS011;1815;50.950;6.920;2023-04-24T01:27:32;1.77;;;0.77;;
3601;SDS011;1815;50.950;6.920;2023-04-24T01:29:58;1.90;;;0.60;;
3601;SDS011;1815;50.950;6.920;2023-04-24T01:32:24;2.00;;;1.07;;
3601;SDS011;1815;50.950;6.920;2023-04-24T01:34:50;1.83;;;1.07;;
3601;SDS011;1815;50.950;6.920;2023-04-24T01:37:16;2.80;;;1.50;;
3601;SDS011;1815;50.950;6.920;2023-04-24T01:39:42;1.70;;;1.30;;
3601;SDS011;1815;50.950;6.920;2023-04-24T01:42:08;2.13;;;1.40;;
3601;SDS011;1815;50.950;6.920;2023-04-24T01:44:34;2.77;;;1.77;;
3601;SDS011;1815;50.950;6.920;2023-04-24T01:47:02;2.15;;;1.50;;
3601;SDS011;1815;50.950;6.920;2023-04-24T01:49:29;2.03;;;1.40;;
3601;SDS011;1815;50.950;6.920;2023-04-24T01:51:54;3.30;;;1.90;;
3601;SDS011;1815;50.950;6.920;2023-04-24T01:54:20;2.43;;;1.60;;
3601;SDS011;1815;50.950;6.920;2023-04-24T01:56:46;3.20;;;1.87;;
3601;SDS011;1815;50.950;6.920;2023-04-24T01:59:12;2.30;;;1.43;;
3601;SDS011;1815;50.950;6.920;2023-04-24T02:01:38;2.60;;;2.00;;
3601;SDS011;1815;50.950;6.920;2023-04-24T02:04:05;3.30;;;1.55;;
3601;SDS011;1815;50.950;6.920;2023-04-24T02:06:33;3.03;;;1.70;;
3601;SDS011;1815;50.950;6.920;2023-04-24T02:08:59;3.42;;;2.22;;
3601;SDS011;1815;50.950;6.920;2023-04-24T02:11:27;5.00;;;2.10;;
3601;SDS011;1815;50.950;6.920;2023-04-24T02:13:53;3.77;;;2.17;;
3601;SDS011;1815;50.950;6.920;2023-04-24T02:16:18;2.33;;;1.60;;
3601;SDS011;1815;50.950;6.920;2023-04-24T02:18:44;3.53;;;2.50;;
3601;SDS011;1815;50.950;6.920;2023-04-24T02:21:10;5.73;;;2.30;;
3601;SDS011;1815;50.950;6.920;2023-04-24T02:23:36;3.27;;;2.63;;
3601;SDS011;1815;50.950;6.920;2023-04-24T02:26:01;5.17;;;2.50;;
3601;SDS011;1815;50.950;6.920;2023-04-24T02:28:27;5.07;;;1.90;;
3601;SDS011;1815;50.950;6.920;2023-04-24T02:30:53;6.40;;;2.45;;
3601;SDS011;1815;50.950;6.920;2023-04-24T02:33:21;2.92;;;1.95;;
3601;SDS011;1815;50.950;6.920;2023-04-24T02:35:47;3.10;;;2.63;;
3601;SDS011;1815;50.950;6.920;2023-04-24T02:38:12;3.83;;;2.83;;
3601;SDS011;1815;50.950;6.920;2023-04-24T02:40:38;3.67;;;2.70;;
3601;SDS011;1815;50.950;6.920;2023-04-24T02:43:04;3.70;;;2.60;;
3601;SDS011;1815;50.950;6.920;2023-04-24T02:45:29;3.03;;;2.73;;
3601;SDS011;1815;50.950;6.920;2023-04-24T02:47:55;3.93;;;2.80;;
3601;SDS011;1815;50.950;6.920;2023-04-24T02:50:21;3.80;;;2.08;;
3601;SDS011;1815;50.950;6.920;2023-04-24T02:52:47;3.00;;;2.37;;
3601;SDS011;1815;50.950;6.920;2023-04-24T02:55:12;3.53;;;2.30;;
3601;SDS011;1815;50.950;6.920;2023-04-24T02:57:39;4.60;;;2.38;;
3601;SDS011;1815;50.950;6.920;2023-04-24T03:00:05;2.90;;;2.40;;
3601;SDS011;1815;50.950;6.920;2023-04-24T03:02:32;5.82;;;3.78;;
3601;SDS011;1815;50.950;6.920;2023-04-24T03:04:59;3.65;;;3.25;;
3601;SDS011;1815;50.950;6.920;2023-04-24T03:07:24;5.37;;;3.00;;
3601;SDS011;1815;50.950;6.920;2023-04-24T03:09:50;3.03;;;2.73;;
3601;SDS011;1815;50.950;6.920;2023-04-24T03:12:16;5.00;;;3.30;;
3601;SDS011;1815;50.950;6.920;2023-04-24T03:14:46;3.78;;;3.22;;
3601;SDS011;1815;50.950;6.920;2023-04-24T03:17:11;7.65;;;3.33;;
3601;SDS011;1815;50.950;6.920;2023-04-24T03:19:37;3.60;;;3.10;;
3601;SDS011;1815;50.950;6.920;2023-04-24T03:22:08;3.50;;;2.88;;
3601;SDS011;1815;50.950;6.920;2023-04-24T03:24:35;4.53;;;3.30;;
3601;SDS011;1815;50.950;6.920;2023-04-24T03:27:00;3.47;;;3.17;;
3601;SDS011;1815;50.950;6.920;2023-04-24T03:29:44;5.55;;;3.42;;
3601;SDS011;1815;50.950;6.920;2023-04-24T03:32:11;3.92;;;3.10;;
3601;SDS011;1815;50.950;6.920;2023-04-24T03:34:37;5.25;;;3.80;;
3601;SDS011;1815;50.950;6.920;2023-04-24T03:37:03;5.57;;;4.53;;
3601;SDS011;1815;50.950;6.920;2023-04-24T03:39:31;4.10;;;3.50;;
3601;SDS011;1815;50.950;6.920;2023-04-24T03:41:57;4.43;;;3.80;;
3601;SDS011;1815;50.950;6.920;2023-04-24T03:44:30;4.70;;;3.67;;
3601;SDS011;1815;50.950;6.920;2023-04-24T03:46:55;3.77;;;3.33;;
3601;SDS011;1815;50.950;6.920;2023-04-24T03:49:23;3.63;;;3.03;;
3601;SDS011;1815;50.950;6.920;2023-04-24T03:51:49;3.80;;;3.40;;
3601;SDS011;1815;50.950;6.920;2023-04-24T03:54:22;4.85;;;4.32;;
3601;SDS011;1815;50.950;6.920;2023-04-24T03:56:49;4.65;;;4.05;;
3601;SDS011;1815;50.950;6.920;2023-04-24T03:59:15;4.28;;;3.75;;
3601;SDS011;1815;50.950;6.920;2023-04-24T04:01:45;4.88;;;3.90;;
3601;SDS011;1815;50.950;6.920;2023-04-24T04:04:14;4.20;;;3.20;;
3601;SDS011;1815;50.950;6.920;2023-04-24T04:06:40;4.22;;;3.13;;
3601;SDS011;1815;50.950;6.920;2023-04-24T04:09:07;5.78;;;3.38;;
3601;SDS011;1815;50.950;6.920;2023-04-24T04:11:34;4.47;;;3.30;;
3601;SDS011;1815;50.950;6.920;2023-04-24T04:14:01;4.80;;;3.13;;
3601;SDS011;1815;50.950;6.920;2023-04-24T04:16:27;5.00;;;3.13;;
3601;SDS011;1815;50.950;6.920;2023-04-24T04:18:59;4.53;;;3.13;;
3601;SDS011;1815;50.950;6.920;2023-04-24T04:21:24;3.83;;;3.47;;
3601;SDS011;1815;50.950;6.920;2023-04-24T04:24:00;4.15;;;2.35;;
3601;SDS011;1815;50.950;6.920;2023-04-24T04:26:32;4.03;;;3.10;;
3601;SDS011;1815;50.950;6.920;2023-04-24T04:29:02;3.72;;;3.10;;
3601;SDS011;1815;50.950;6.920;2023-04-24T04:31:29;5.60;;;3.50;;
3601;SDS011;1815;50.950;6.920;2023-04-24T04:33:58;4.13;;;3.50;;
3601;SDS011;1815;50.950;6.920;2023-04-24T04:36:24;7.00;;;3.42;;
3601;SDS011;1815;50.950;6.920;2023-04-24T04:38:58;4.68;;;3.25;;
3601;SDS011;1815;50.950;6.920;2023-04-24T04:41:44;7.90;;;3.72;;
3601;SDS011;1815;50.950;6.920;2023-04-24T04:44:16;5.55;;;3.75;;
3601;SDS011;1815;50.950;6.920;2023-04-24T04:46:42;6.07;;;2.95;;
3601;SDS011;1815;50.950;6.920;2023-04-24T04:49:17;3.70;;;2.90;;
3601;SDS011;1815;50.950;6.920;2023-04-24T04:51:43;3.33;;;2.70;;
3601;SDS011;1815;50.950;6.920;2023-04-24T04:54:10;4.07;;;2.78;;
3601;SDS011;1815;50.950;6.920;2023-04-24T04:56:36;3.00;;;2.60;;
3601;SDS011;1815;50.950;6.920;2023-04-24T04:59:03;4.45;;;2.33;;
3601;SDS011;1815;50.950;6.920;2023-04-24T05:01:28;3.60;;;3.07;;
3601;SDS011;1815;50.950;6.920;2023-04-24T05:03:55;4.43;;;2.92;;
3601;SDS011;1815;50.950;6.920;2023-04-24T05:06:20;2.87;;;2.30;;
3601;SDS011;1815;50.950;6.920;2023-04-24T05:08:47;4.90;;;2.25;;
3601;SDS011;1815;50.950;6.920;2023-04-24T05:11:26;4.75;;;2.75;;
3601;SDS011;1815;50.950;6.920;2023-04-24T05:13:53;4.78;;;2.67;;
3601;SDS011;1815;50.950;6.920;2023-04-24T05:16:27;3.38;;;2.72;;
3601;SDS011;1815;50.950;6.920;2023-04-24T05:18:55;6.68;;;3.25;;
3601;SDS011;1815;50.950;6.920;2023-04-24T05:21:27;4.40;;;2.65;;
3601;SDS011;1815;50.950;6.920;2023-04-24T05:23:53;3.72;;;2.97;;
3601;SDS011;1815;50.950;6.920;2023-04-24T05:26:33;2.97;;;2.00;;
3601;SDS011;1815;50.950;6.920;2023-04-24T05:28:58;4.80;;;2.87;;
3601;SDS011;1815;50.950;6.920;2023-04-24T05:31:25;3.80;;;2.85;;
3601;SDS011;1815;50.950;6.920;2023-04-24T05:33:50;3.07;;;2.77;;
3601;SDS011;1815;50.950;6.920;2023-04-24T05:36:16;4.22;;;3.50;;
3601;SDS011;1815;50.950;6.920;2023-04-24T05:38:42;3.53;;;2.80;;
3601;SDS011;1815;50.950;6.920;2023-04-24T05:41:08;3.50;;;2.93;;
3601;SDS011;1815;50.950;6.920;2023-04-24T05:43:35;4.22;;;3.17;;
3601;SDS011;1815;50.950;6.920;2023-04-24T05:46:00;3.10;;;2.60;;
3601;SDS011;1815;50.950;6.920;2023-04-24T05:48:26;3.57;;;2.30;;
3601;SDS011;1815;50.950;6.920;2023-04-24T05:50:52;4.50;;;3.27;;
3601;SDS011;1815;50.950;6.920;2023-04-24T05:53:18;7.90;;;3.77;;
3601;SDS011;1815;50.950;6.920;2023-04-24T05:55:44;4.22;;;2.70;;
3601;SDS011;1815;50.950;6.920;2023-04-24T05:58:11;3.53;;;2.75;;
3601;SDS011;1815;50.950;6.920;2023-04-24T06:00:37;3.00;;;2.30;;
3601;SDS011;1815;50.950;6.920;2023-04-24T06:03:07;4.05;;;3.10;;
3601;SDS011;1815;50.950;6.920;2023-04-24T06:05:33;4.10;;;3.20;;
3601;SDS011;1815;50.950;6.920;2023-04-24T06:08:01;3.10;;;2.35;;
3601;SDS011;1815;50.950;6.920;2023-04-24T06:10:31;5.05;;;3.20;;
3601;SDS011;1815;50.950;6.920;2023-04-24T06:12:58;5.38;;;2.80;;
3601;SDS011;1815;50.950;6.920;2023-04-24T06:15:30;2.13;;;1.50;;
3601;SDS011;1815;50.950;6.920;2023-04-24T06:18:05;2.38;;;1.48;;
3601;SDS011;1815;50.950;6.920;2023-04-24T06:20:31;2.33;;;1.10;;
3601;SDS011;1815;50.950;6.920;2023-04-24T06:22:56;2.30;;;1.67;;
3601;SDS011;1815;50.950;6.920;2023-04-24T06:25:24;2.00;;;1.33;;
3601;SDS011;1815;50.950;6.920;2023-04-24T06:27:51;2.72;;;1.05;;
3601;SDS011;1815;50.950;6.920;2023-04-24T06:30:17;2.67;;;1.30;;
3601;SDS011;1815;50.950;6.920;2023-04-24T06:32:43;1.95;;;1.00;;
3601;SDS011;1815;50.950;6.920;2023-04-24T06:35:09;2.20;;;1.10;;
3601;SDS011;1815;50.950;6.920;2023-04-24T06:37:37;1.60;;;1.00;;
3601;SDS011;1815;50.950;6.920;2023-04-24T06:40:04;1.80;;;1.25;;
3601;SDS011;1815;50.950;6.920;2023-04-24T06:42:30;1.55;;;1.00;;
3601;SDS011;1815;50.950;6.920;2023-04-24T06:44:56;1.50;;;0.80;;
3601;SDS011;1815;50.950;6.920;2023-04-24T06:47:22;1.93;;;0.90;;
3601;SDS011;1815;50.950;6.920;2023-04-24T06:49:48;2.50;;;0.90;;
3601;SDS011;1815;50.950;6.920;2023-04-24T06:52:16;1.70;;;0.90;;
3601;SDS011;1815;50.950;6.920;2023-04-24T06:54:41;1.50;;;0.70;;
3601;SDS011;1815;50.950;6.920;2023-04-24T06:57:08;2.20;;;0.70;;
3601;SDS011;1815;50.950;6.920;2023-04-24T06:59:34;1.92;;;0.73;;
3601;SDS011;1815;50.950;6.920;2023-04-24T07:02:00;1.70;;;0.83;;
3601;SDS011;1815;50.950;6.920;2023-04-24T07:04:26;2.38;;;0.90;;
3601;SDS011;1815;50.950;6.920;2023-04-24T07:06:52;1.50;;;1.00;;
3601;SDS011;1815;50.950;6.920;2023-04-24T07:09:21;1.92;;;0.80;;
3601;SDS011;1815;50.950;6.920;2023-04-24T07:11:47;1.70;;;0.90;;
3601;SDS011;1815;50.950;6.920;2023-04-24T07:14:13;2.72;;;0.80;;
3601;SDS011;1815;50.950;6.920;2023-04-24T07:16:39;1.50;;;0.90;;
3601;SDS011;1815;50.950;6.920;2023-04-24T07:19:05;2.10;;;1.00;;
3601;SDS011;1815;50.950;6.920;2023-04-24T07:21:32;1.92;;;1.00;;
3601;SDS011;1815;50.950;6.920;2023-04-24T07:23:58;2.63;;;1.00;;
3601;SDS011;1815;50.950;6.920;2023-04-24T07:26:24;3.38;;;1.23;;
3601;SDS011;1815;50.950;6.920;2023-04-24T07:28:51;2.17;;;1.08;;
3601;SDS011;1815;50.950;6.920;2023-04-24T07:31:16;2.07;;;0.97;;
3601;SDS011;1815;50.950;6.920;2023-04-24T07:33:42;1.70;;;1.10;;
3601;SDS011;1815;50.950;6.920;2023-04-24T07:36:08;1.40;;;0.80;;
3601;SDS011;1815;50.950;6.920;2023-04-24T07:38:40;1.63;;;1.00;;
3601;SDS011;1815;50.950;6.920;2023-04-24T07:41:07;1.40;;;0.70;;
3601;SDS011;1815;50.950;6.920;2023-04-24T07:43:32;1.50;;;0.80;;
3601;SDS011;1815;50.950;6.920;2023-04-24T07:45:58;2.10;;;0.80;;
3601;SDS011;1815;50.950;6.920;2023-04-24T07:48:24;2.47;;;1.00;;
3601;SDS011;1815;50.950;6.920;2023-04-24T07:50:51;1.20;;;0.60;;
3601;SDS011;1815;50.950;6.920;2023-04-24T07:53:17;1.80;;;0.80;;
3601;SDS011;1815;50.950;6.920;2023-04-24T07:55:43;1.80;;;0.70;;
3601;SDS011;1815;50.950;6.920;2023-04-24T07:58:09;2.17;;;1.03;;
3601;SDS011;1815;50.950;6.920;2023-04-24T08:00:35;1.40;;;0.70;;
3601;SDS011;1815;50.950;6.920;2023-04-24T08:03:01;1.43;;;0.70;;
3601;SDS011;1815;50.950;6.920;2023-04-24T08:05:27;2.28;;;0.80;;
3601;SDS011;1815;50.950;6.920;2023-04-24T08:07:53;2.05;;;1.20;;
3601;SDS011;1815;50.950;6.920;2023-04-24T08:10:20;1.77;;;0.60;;
3601;SDS011;1815;50.950;6.920;2023-04-24T08:12:50;1.40;;;0.80;;
3601;SDS011;1815;50.950;6.920;2023-04-24T08:15:15;2.53;;;1.00;;
3601;SDS011;1815;50.950;6.920;2023-04-24T08:17:41;1.50;;;0.80;;
3601;SDS011;1815;50.950;6.920;2023-04-24T08:20:08;2.60;;;0.90;;
3601;SDS011;1815;50.950;6.920;2023-04-24T08:22:41;1.70;;;0.70;;
3601;SDS011;1815;50.950;6.920;2023-04-24T08:25:08;1.50;;;0.80;;
3601;SDS011;1815;50.950;6.920;2023-04-24T08:27:34;2.28;;;0.90;;
3601;SDS011;1815;50.950;6.920;2023-04-24T08:30:02;1.38;;;0.70;;
3601;SDS011;1815;50.950;6.920;2023-04-24T08:32:28;2.35;;;1.00;;
3601;SDS011;1815;50.950;6.920;2023-04-24T08:34:54;3.10;;;0.80;;
3601;SDS011;1815;50.950;6.920;2023-04-24T08:37:25;1.77;;;1.00;;
3601;SDS011;1815;50.950;6.920;2023-04-24T08:39:51;1.55;;;0.77;;
3601;SDS011;1815;50.950;6.920;2023-04-24T08:42:18;2.70;;;0.70;;
3601;SDS011;1815;50.950;6.920;2023-04-24T08:44:44;1.55;;;0.80;;
3601;SDS011;1815;50.950;6.920;2023-04-24T08:47:11;1.40;;;0.90;;
3601;SDS011;1815;50.950;6.920;2023-04-24T08:49:37;2.55;;;0.80;;
3601;SDS011;1815;50.950;6.920;2023-04-24T08:52:04;1.73;;;0.80;;
3601;SDS011;1815;50.950;6.920;2023-04-24T08:54:31;1.48;;;0.80;;
3601;SDS011;1815;50.950;6.920;2023-04-24T08:56:59;3.88;;;1.13;;
3601;SDS011;1815;50.950;6.920;2023-04-24T08:59:29;1.60;;;1.08;;
3601;SDS011;1815;50.950;6.920;2023-04-24T09:01:56;1.63;;;1.17;;
3601;SDS011;1815;50.950;6.920;2023-04-24T09:04:22;2.20;;;1.00;;
3601;SDS011;1815;50.950;6.920;2023-04-24T09:06:54;2.28;;;1.45;;
3601;SDS011;1815;50.950;6.920;2023-04-24T09:09:21;1.92;;;1.30;;
3601;SDS011;1815;50.950;6.920;2023-04-24T09:11:48;3.22;;;1.77;;
3601;SDS011;1815;50.950;6.920;2023-04-24T09:14:15;2.35;;;1.45;;
3601;SDS011;1815;50.950;6.920;2023-04-24T09:16:41;3.45;;;2.30;;
3601;SDS011;1815;50.950;6.920;2023-04-24T09:19:07;4.25;;;2.30;;
3601;SDS011;1815;50.950;6.920;2023-04-24T09:21:34;6.40;;;3.67;;
3601;SDS011;1815;50.950;6.920;2023-04-24T09:24:04;3.90;;;2.70;;
3601;SDS011;1815;50.950;6.920;2023-04-24T09:26:33;4.05;;;2.78;;
3601;SDS011;1815;50.950;6.920;2023-04-24T09:29:00;3.17;;;2.88;;
3601;SDS011;1815;50.950;6.920;2023-04-24T09:31:28;3.83;;;3.20;;
3601;SDS011;1815;50.950;6.920;2023-04-24T09:33:56;8.32;;;3.92;;
3601;SDS011;1815;50.950;6.920;2023-04-24T09:36:29;6.32;;;3.80;;
3601;SDS011;1815;50.950;6.920;2023-04-24T09:39:03;4.18;;;3.35;;
3601;SDS011;1815;50.950;6.920;2023-04-24T09:41:31;5.40;;;3.72;;
3601;SDS011;1815;50.950;6.920;2023-04-24T09:43:58;5.00;;;3.17;;
3601;SDS011;1815;50.950;6.920;2023-04-24T09:46:37;4.97;;;4.25;;
3601;SDS011;1815;50.950;6.920;2023-04-24T09:49:10;7.20;;;4.70;;
3601;SDS011;1815;50.950;6.920;2023-04-24T09:51:40;6.55;;;4.55;;
3601;SDS011;1815;50.950;6.920;2023-04-24T09:54:15;4.90;;;4.33;;
3601;SDS011;1815;50.950;6.920;2023-04-24T09:56:46;5.53;;;3.60;;
3601;SDS011;1815;50.950;6.920;2023-04-24T09:59:14;6.53;;;4.05;;
3601;SDS011;1815;50.950;6.920;2023-04-24T10:01:41;6.20;;;4.93;;
3601;SDS011;1815;50.950;6.920;2023-04-24T10:04:17;4.68;;;4.18;;
3601;SDS011;1815;50.950;6.920;2023-04-24T10:06:53;4.43;;;3.70;;
3601;SDS011;1815;50.950;6.920;2023-04-24T10:09:21;7.60;;;5.70;;
3601;SDS011;1815;50.950;6.920;2023-04-24T10:11:49;5.05;;;4.25;;
3601;SDS011;1815;50.950;6.920;2023-04-24T10:14:17;8.95;;;3.90;;
3601;SDS011;1815;50.950;6.920;2023-04-24T10:16:45;5.32;;;3.22;;
3601;SDS011;1815;50.950;6.920;2023-04-24T10:19:14;8.82;;;3.10;;
3601;SDS011;1815;50.950;6.920;2023-04-24T10:21:42;4.10;;;2.83;;
3601;SDS011;1815;50.950;6.920;2023-04-24T10:24:12;3.38;;;2.50;;
3601;SDS011;1815;50.950;6.920;2023-04-24T10:26:38;4.28;;;2.95;;
3601;SDS011;1815;50.950;6.920;2023-04-24T10:29:05;4.68;;;3.53;;
3601;SDS011;1815;50.950;6.920;2023-04-24T10:31:35;5.63;;;3.10;;
3601;SDS011;1815;50.950;6.920;2023-04-24T10:34:02;5.60;;;3.05;;
3601;SDS011;1815;50.950;6.920;2023-04-24T10:36:29;5.38;;;3.10;;
3601;SDS011;1815;50.950;6.920;2023-04-24T10:38:57;4.70;;;2.70;;
3601;SDS011;1815;50.950;6.920;2023-04-24T10:41:26;4.05;;;2.70;;
3601;SDS011;1815;50.950;6.920;2023-04-24T10:46:31;7.35;;;3.22;;
3601;SDS011;1815;50.950;6.920;2023-04-24T10:48:57;3.80;;;2.77;;
3601;SDS011;1815;50.950;6.920;2023-04-24T10:51:23;4.88;;;2.10;;
3601;SDS011;1815;50.950;6.920;2023-04-24T10:53:51;5.82;;;3.08;;
3601;SDS011;1815;50.950;6.920;2023-04-24T10:56:17;7.63;;;3.73;;
3601;SDS011;1815;50.950;6.920;2023-04-24T10:58:43;5.38;;;2.92;;
3601;SDS011;1815;50.950;6.920;2023-04-24T11:04:00;9.02;;;3.70;;
3601;SDS011;1815;50.950;6.920;2023-04-24T11:06:31;6.70;;;3.53;;
3601;SDS011;1815;50.950;6.920;2023-04-24T11:09:04;12.60;;;4.85;;
3601;SDS011;1815;50.950;6.920;2023-04-24T11:11:44;7.38;;;3.85;;
3601;SDS011;1815;50.950;6.920;2023-04-24T11:14:14;4.60;;;3.88;;
3601;SDS011;1815;50.950;6.920;2023-04-24T11:16:53;8.00;;;3.00;;
3601;SDS011;1815;50.950;6.920;2023-04-24T11:19:25;7.03;;;2.80;;
3601;SDS011;1815;50.950;6.920;2023-04-24T11:32:27;4.63;;;3.03;;
3601;SDS011;1815;50.950;6.920;2023-04-24T11:35:02;5.05;;;2.40;;
3601;SDS011;1815;50.950;6.920;2023-04-24T11:37:45;6.80;;;2.85;;
3601;SDS011;1815;50.950;6.920;2023-04-24T11:40:12;6.82;;;3.45;;
3601;SDS011;1815;50.950;6.920;2023-04-24T11:42:43;4.53;;;4.00;;
3601;SDS011;1815;50.950;6.920;2023-04-24T11:47:47;7.20;;;3.80;;
3601;SDS011;1815;50.950;6.920;2023-04-24T11:50:15;8.80;;;3.07;;
3601;SDS011;1815;50.950;6.920;2023-04-24T11:52:47;8.47;;;3.00;;
3601;SDS011;1815;50.950;6.920;2023-04-24T11:57:39;6.50;;;3.60;;
3601;SDS011;1815;50.950;6.920;2023-04-24T12:00:15;10.90;;;3.00;;
3601;SDS011;1815;50.950;6.920;2023-04-24T12:02:42;6.03;;;2.93;;
3601;SDS011;1815;50.950;6.920;2023-04-24T12:05:08;5.73;;;2.30;;
3601;SDS011;1815;50.950;6.920;2023-04-24T12:07:40;5.30;;;2.80;;
3601;SDS011;1815;50.950;6.920;2023-04-24T12:10:09;6.70;;;3.17;;
3601;SDS011;1815;50.950;6.920;2023-04-24T12:12:35;5.40;;;3.60;;
3601;SDS011;1815;50.950;6.920;2023-04-24T12:15:01;4.93;;;2.50;;
3601;SDS011;1815;50.950;6.920;2023-04-24T12:17:33;4.13;;;2.50;;
3601;SDS011;1815;50.950;6.920;2023-04-24T12:20:06;4.73;;;2.13;;
3601;SDS011;1815;50.950;6.920;2023-04-24T12:22:43;5.20;;;2.60;;
3601;SDS011;1815;50.950;6.920;2023-04-24T12:25:13;5.93;;;3.80;;
3601;SDS011;1815;50.950;6.920;2023-04-24T12:27:44;3.70;;;2.53;;
3601;SDS011;1815;50.950;6.920;2023-04-24T12:30:14;7.50;;;3.33;;
3601;SDS011;1815;50.950;6.920;2023-04-24T12:32:47;6.93;;;2.80;;
3601;SDS011;1815;50.950;6.920;2023-04-24T12:35:21;7.23;;;3.20;;
3601;SDS011;1815;50.950;6.920;2023-04-24T12:37:48;6.33;;;2.60;;
3601;SDS011;1815;50.950;6.920;2023-04-24T12:40:14;9.07;;;3.97;;
3601;SDS011;1815;50.950;6.920;2023-04-24T12:42:48;8.60;;;4.70;;
3601;SDS011;1815;50.950;6.920;2023-04-24T12:45:15;6.07;;;2.60;;
3601;SDS011;1815;50.950;6.920;2023-04-24T12:47:42;7.47;;;3.10;;
3601;SDS011;1815;50.950;6.920;2023-04-24T12:50:09;5.17;;;2.87;;
3601;SDS011;1815;50.950;6.920;2023-04-24T12:52:39;6.30;;;2.90;;
3601;SDS011;1815;50.950;6.920;2023-04-24T12:55:06;7.57;;;2.73;;
3601;SDS011;1815;50.950;6.920;2023-04-24T12:57:36;5.53;;;2.63;;
3601;SDS011;1815;50.950;6.920;2023-04-24T13:00:04;4.70;;;2.50;;
3601;SDS011;1815;50.950;6.920;2023-04-24T13:02:34;7.63;;;2.40;;
3601;SDS011;1815;50.950;6.920;2023-04-24T13:05:00;7.83;;;2.23;;
3601;SDS011;1815;50.950;6.920;2023-04-24T13:07:27;6.80;;;3.47;;
3601;SDS011;1815;50.950;6.920;2023-04-24T13:09:53;7.63;;;2.93;;
3601;SDS011;1815;50.950;6.920;2023-04-24T13:12:20;6.77;;;2.83;;
3601;SDS011;1815;50.950;6.920;2023-04-24T13:14:46;6.33;;;2.77;;
3601;SDS011;1815;50.950;6.920;2023-04-24T13:17:12;6.00;;;3.17;;
3601;SDS011;1815;50.950;6.920;2023-04-24T13:19:40;4.97;;;2.70;;
3601;SDS011;1815;50.950;6.920;2023-04-24T13:22:08;7.67;;;3.63;;
3601;SDS011;1815;50.950;6.920;2023-04-24T13:24:35;6.10;;;3.40;;
3601;SDS011;1815;50.950;6.920;2023-04-24T13:27:02;5.73;;;3.40;;
3601;SDS011;1815;50.950;6.920;2023-04-24T13:29:28;6.80;;;3.00;;
3601;SDS011;1815;50.950;6.920;2023-04-24T13:31:54;6.30;;;3.20;;
3601;SDS011;1815;50.950;6.920;2023-04-24T13:34:24;3.60;;;2.73;;
3601;SDS011;1815;50.950;6.920;2023-04-24T13:36:54;7.33;;;3.50;;
3601;SDS011;1815;50.950;6.920;2023-04-24T13:39:21;6.47;;;3.33;;
3601;SDS011;1815;50.950;6.920;2023-04-24T13:41:48;4.27;;;2.40;;
3601;SDS011;1815;50.950;6.920;2023-04-24T13:44:14;4.50;;;2.60;;
3601;SDS011;1815;50.950;6.920;2023-04-24T13:46:41;8.47;;;3.23;;
3601;SDS011;1815;50.950;6.920;2023-04-24T13:49:08;7.17;;;2.20;;
3601;SDS011;1815;50.950;6.920;2023-04-24T13:51:34;4.43;;;2.80;;
3601;SDS011;1815;50.950;6.920;2023-04-24T13:54:00;4.47;;;2.53;;
3601;SDS011;1815;50.950;6.920;2023-04-24T13:56:26;6.30;;;2.83;;
3601;SDS011;1815;50.950;6.920;2023-04-24T13:58:52;4.73;;;2.73;;
3601;SDS011;1815;50.950;6.920;2023-04-24T14:01:19;5.60;;;3.57;;
3601;SDS011;1815;50.950;6.920;2023-04-24T14:03:49;6.80;;;2.50;;
3601;SDS011;1815;50.950;6.920;2023-04-24T14:06:15;4.60;;;2.03;;
3601;SDS011;1815;50.950;6.920;2023-04-24T14:08:41;6.30;;;2.80;;
3601;SDS011;1815;50.950;6.920;2023-04-24T14:11:06;5.30;;;2.20;;
3601;SDS011;1815;50.950;6.920;2023-04-24T14:13:32;8.33;;;2.23;;
3601;SDS011;1815;50.950;6.920;2023-04-24T14:15:58;5.33;;;2.80;;
3601;SDS011;1815;50.950;6.920;2023-04-24T14:18:24;5.00;;;2.77;;
3601;SDS011;1815;50.950;6.920;2023-04-24T14:20:49;4.63;;;2.57;;
3601;SDS011;1815;50.950;6.920;2023-04-24T14:23:15;6.53;;;2.50;;
3601;SDS011;1815;50.950;6.920;2023-04-24T14:25:41;6.57;;;2.60;;
3601;SDS011;1815;50.950;6.920;2023-04-24T14:28:06;7.20;;;2.70;;
3601;SDS011;1815;50.950;6.920;2023-04-24T14:30:32;7.63;;;3.70;;
3601;SDS011;1815;50.950;6.920;2023-04-24T14:32:58;5.80;;;4.23;;
3601;SDS011;1815;50.950;6.920;2023-04-24T14:35:24;4.80;;;3.00;;
3601;SDS011;1815;50.950;6.920;2023-04-24T14:37:50;4.80;;;3.20;;
3601;SDS011;1815;50.950;6.920;2023-04-24T14:40:16;5.30;;;2.97;;
3601;SDS011;1815;50.950;6.920;2023-04-24T14:42:42;7.37;;;4.40;;
3601;SDS011;1815;50.950;6.920;2023-04-24T14:45:08;9.10;;;4.30;;
3601;SDS011;1815;50.950;6.920;2023-04-24T14:47:34;9.10;;;4.07;;
3601;SDS011;1815;50.950;6.920;2023-04-24T14:50:01;6.17;;;3.17;;
3601;SDS011;1815;50.950;6.920;2023-04-24T14:52:28;3.90;;;2.63;;
3601;SDS011;1815;50.950;6.920;2023-04-24T14:54:53;5.20;;;3.07;;
3601;SDS011;1815;50.950;6.920;2023-04-24T14:57:19;4.60;;;3.03;;
3601;SDS011;1815;50.950;6.920;2023-04-24T14:59:45;5.17;;;3.77;;
3601;SDS011;1815;50.950;6.920;2023-04-24T15:02:11;6.63;;;3.43;;
3601;SDS011;1815;50.950;6.920;2023-04-24T15:04:37;3.90;;;2.63;;
3601;SDS011;1815;50.950;6.920;2023-04-24T15:07:03;6.57;;;3.40;;
3601;SDS011;1815;50.950;6.920;2023-04-24T15:09:28;4.50;;;2.53;;
3601;SDS011;1815;50.950;6.920;2023-04-24T15:11:57;4.97;;;2.47;;
3601;SDS011;1815;50.950;6.920;2023-04-24T15:14:22;3.77;;;1.60;;
3601;SDS011;1815;50.950;6.920;2023-04-24T15:16:48;4.30;;;1.87;;
3601;SDS011;1815;50.950;6.920;2023-04-24T15:19:14;4.30;;;1.80;;
3601;SDS011;1815;50.950;6.920;2023-04-24T15:21:40;4.23;;;2.13;;
3601;SDS011;1815;50.950;6.920;2023-04-24T15:24:07;2.33;;;1.43;;
3601;SDS011;1815;50.950;6.920;2023-04-24T15:26:33;2.83;;;1.87;;
3601;SDS011;1815;50.950;6.920;2023-04-24T15:28:59;5.57;;;2.20;;
3601;SDS011;1815;50.950;6.920;2023-04-24T15:31:25;6.33;;;2.60;;
3601;SDS011;1815;50.950;6.920;2023-04-24T15:33:50;2.47;;;1.80;;
3601;SDS011;1815;50.950;6.920;2023-04-24T15:36:17;4.00;;;2.47;;
3601;SDS011;1815;50.950;6.920;2023-04-24T15:38:43;4.53;;;2.10;;